Time;durP1;ratioP1;P1;durP2;ratioP2;P2;SDS_P1;SDS_P2;PMS_P1;PMS_P2;Temp;Humidity;BMP_temperature;BMP_pressure;BME280_temperature;BME280_humidity;BME280_pressure;Samples;Min_cycle;Max_cycle;Signal;HPM_P1;HPM_P2
2022/08/08 00:00:59;;;;;;;2.67;1.57;;;18.60;93.40;;;;;;5006498;28;20022;-76
2022/08/08 00:03:44;;;;;;;3.55;1.75;;;18.60;93.80;;;;;;5006269;28;20761;-76
2022/08/08 00:06:32;;;;;;;3.13;1.67;;;18.60;94.40;;;;;;5006864;28;20037;-75
2022/08/08 00:09:23;;;;;;;3.22;1.60;;;18.50;94.40;;;;;;4991421;28;20508;-76
2022/08/08 00:11:59;;;;;;;3.67;1.40;;;18.50;94.50;;;;;;4989945;28;20042;-75
2022/08/08 00:14:39;;;;;;;2.50;1.38;;;18.40;95.10;;;;;;4989777;28;20471;-76
2022/08/08 00:17:19;;;;;;;2.70;1.70;;;18.40;94.90;;;;;;5007306;28;20113;-76
2022/08/08 00:20:00;;;;;;;3.33;1.80;;;18.40;95.20;;;;;;4990187;28;20031;-75
2022/08/08 00:22:38;;;;;;;3.80;1.77;;;18.40;95.60;;;;;;4990779;28;20030;-76
2022/08/08 00:25:13;;;;;;;4.63;1.80;;;18.40;95.60;;;;;;4991113;28;20040;-76
2022/08/08 00:27:39;;;;;;;3.22;1.80;;;18.30;95.50;;;;;;4990014;28;20030;-76
2022/08/08 00:30:07;;;;;;;3.20;1.80;;;18.30;95.60;;;;;;4973802;28;20088;-76
2022/08/08 00:32:52;;;;;;;1.70;1.30;;;18.30;96.00;;;;;;4974069;28;20489;-76
2022/08/08 00:36:13;;;;;;;1.98;1.55;;;18.30;96.40;;;;;;5007742;28;20038;-76
2022/08/08 00:38:48;;;;;;;2.83;1.90;;;18.20;96.60;;;;;;4991036;28;20125;-75
2022/08/08 00:41:41;;;;;;;2.28;1.75;;;18.20;96.70;;;;;;5008954;28;20034;-76
2022/08/08 00:44:50;;;;;;;3.70;1.70;;;18.10;97.30;;;;;;4992906;28;20034;-75
2022/08/08 00:47:33;;;;;;;2.30;1.58;;;18.10;97.30;;;;;;5012274;28;20105;-75
2022/08/08 00:50:14;;;;;;;1.85;1.35;;;18.10;97.50;;;;;;4994593;28;20057;-75
2022/08/08 00:53:18;;;;;;;3.65;1.38;;;18.00;97.60;;;;;;4993138;28;20074;-75
2022/08/08 00:56:11;;;;;;;2.63;1.30;;;18.00;98.30;;;;;;5013574;28;20117;-75
2022/08/08 00:59:01;;;;;;;1.55;1.40;;;17.90;98.80;;;;;;4993401;28;20061;-75
2022/08/08 01:01:56;;;;;;;3.80;1.67;;;17.90;99.00;;;;;;4994451;28;20110;-75
2022/08/08 01:05:20;;;;;;;4.40;1.80;;;17.90;98.90;;;;;;5010739;28;20500;-75
2022/08/08 01:08:10;;;;;;;1.80;1.20;;;17.80;98.40;;;;;;5014645;28;20034;-75
2022/08/08 01:10:57;;;;;;;2.75;1.40;;;17.80;97.80;;;;;;4993070;28;20501;-75
2022/08/08 01:14:14;;;;;;;2.55;1.38;;;17.70;98.40;;;;;;5009630;28;20548;-75
2022/08/08 01:17:16;;;;;;;2.17;1.40;;;17.70;99.00;;;;;;4992913;28;20129;-75
2022/08/08 01:20:27;;;;;;;1.30;1.20;;;17.60;99.60;;;;;;4993966;28;20108;-75
2022/08/08 01:23:20;;;;;;;1.25;1.15;;;17.60;99.50;;;;;;4992436;28;20065;-75
2022/08/08 01:26:04;;;;;;;1.77;1.40;;;17.50;99.60;;;;;;4993711;28;20030;-75
2022/08/08 01:28:44;;;;;;;1.80;1.70;;;17.50;99.90;;;;;;4992014;28;20030;-75
2022/08/08 01:31:50;;;;;;;3.55;1.40;;;17.50;99.90;;;;;;4993853;28;20050;-75
2022/08/08 01:34:34;;;;;;;2.30;1.63;;;17.40;99.90;;;;;;4992531;28;20751;-75
2022/08/08 01:37:25;;;;;;;1.58;1.40;;;17.40;99.90;;;;;;5013150;23;20032;-77
2022/08/08 01:40:29;;;;;;;2.00;1.40;;;17.30;99.90;;;;;;4977569;28;20414;-77
2022/08/08 01:43:08;;;;;;;2.65;1.70;;;17.30;99.90;;;;;;4940127;28;20391;-77
2022/08/08 01:45:40;;;;;;;3.83;1.55;;;17.20;99.90;;;;;;4975944;28;20022;-77
2022/08/08 01:48:35;;;;;;;4.15;1.65;;;17.20;99.90;;;;;;4988170;28;20070;-78
2022/08/08 01:51:39;;;;;;;3.15;1.38;;;17.20;99.90;;;;;;4951160;28;20093;-77
2022/08/08 01:54:39;;;;;;;2.53;1.60;;;17.10;99.90;;;;;;4978082;28;20031;-75
2022/08/08 01:57:29;;;;;;;1.40;1.30;;;17.10;99.90;;;;;;4958796;28;20456;-74
2022/08/08 02:00:20;;;;;;;3.58;1.58;;;17.10;99.90;;;;;;4946497;28;20410;-75
2022/08/08 02:03:40;;;;;;;2.42;1.67;;;17.00;99.90;;;;;;4960005;28;20026;-75
2022/08/08 02:06:24;;;;;;;;;;;16.90;99.90;;;;;;4970778;28;20078;-74
2022/08/08 02:09:09;;;;;;;2.42;1.42;;;16.90;99.90;;;;;;4993064;28;20302;-75
2022/08/08 02:11:40;;;;;;;2.83;1.60;;;16.80;99.90;;;;;;4945373;28;20023;-75
2022/08/08 02:14:50;;;;;;;1.50;1.40;;;16.80;99.90;;;;;;4959542;28;20037;-75
2022/08/08 02:18:18;;;;;;;1.60;1.50;;;16.70;99.90;;;;;;4992995;28;20061;-75
2022/08/08 02:24:02;;;;;;;2.78;1.55;;;16.60;99.90;;;;;;4952535;28;20077;-75
2022/08/08 02:26:43;;;;;;;2.58;1.63;;;16.60;99.90;;;;;;4959453;28;20478;-75
2022/08/08 02:29:43;;;;;;;1.73;1.63;;;16.60;99.90;;;;;;4943569;28;20042;-75
2022/08/08 02:32:30;;;;;;;3.55;1.92;;;16.50;99.90;;;;;;4972021;28;20030;-75
2022/08/08 02:35:01;;;;;;;2.55;1.83;;;16.50;99.90;;;;;;4955571;28;20487;-75
2022/08/08 02:38:16;;;;;;;3.13;1.88;;;16.50;99.90;;;;;;4972714;28;20118;-74
2022/08/08 02:41:01;;;;;;;1.65;1.33;;;16.50;99.90;;;;;;4973018;28;20738;-74
2022/08/08 02:44:24;;;;;;;2.53;1.50;;;16.40;99.90;;;;;;4958198;28;20034;-75
2022/08/08 02:47:21;;;;;;;4.20;1.80;;;16.40;99.90;;;;;;4955463;28;20023;-75
2022/08/08 02:50:18;;;;;;;1.52;1.35;;;16.40;99.90;;;;;;4957479;28;20042;-74
2022/08/08 02:53:11;;;;;;;1.80;1.40;;;16.40;99.90;;;;;;4972293;28;20105;-75
2022/08/08 02:56:00;;;;;;;1.73;1.60;;;16.40;99.90;;;;;;4972657;28;20479;-74
2022/08/08 02:59:03;;;;;;;1.50;1.40;;;16.40;99.90;;;;;;4971831;28;20023;-75
2022/08/08 03:02:03;;;;;;;1.60;1.50;;;16.30;99.90;;;;;;4972749;28;20089;-75
2022/08/08 03:05:03;;;;;;;3.35;1.60;;;16.20;99.90;;;;;;4941237;28;20035;-74
2022/08/08 03:07:48;;;;;;;1.55;1.45;;;16.20;99.90;;;;;;4955323;28;20131;-75
2022/08/08 03:10:58;;;;;;;5.72;2.10;;;16.20;99.90;;;;;;4972595;28;20037;-75
2022/08/08 03:14:04;;;;;;;2.63;1.55;;;16.20;99.90;;;;;;4946146;28;20037;-75
2022/08/08 03:16:48;;;;;;;4.43;1.70;;;16.10;99.90;;;;;;4980422;28;20474;-75
2022/08/08 03:20:01;;;;;;;2.33;1.70;;;16.10;99.90;;;;;;4988004;28;20030;-74
2022/08/08 03:22:27;;;;;;;2.28;2.08;;;16.10;99.90;;;;;;4989993;28;20039;-74
2022/08/08 03:24:53;;;;;;;2.50;1.87;;;16.00;99.90;;;;;;4991003;28;20039;-74
2022/08/08 03:27:30;;;;;;;3.97;1.42;;;16.00;99.90;;;;;;4956038;28;20026;-74
2022/08/08 03:30:05;;;;;;;;;;;16.00;99.90;;;;;;4940374;28;20063;-74
2022/08/08 03:35:16;;;;;;;1.77;1.67;;;15.90;99.90;;;;;;4944636;28;20034;-75
2022/08/08 03:37:42;;;;;;;2.03;1.53;;;15.90;99.90;;;;;;4938936;28;20479;-75
2022/08/08 03:40:08;;;;;;;1.80;1.63;;;15.90;99.90;;;;;;4939070;28;20046;-74
2022/08/08 03:42:36;;;;;;;2.73;1.80;;;15.90;99.90;;;;;;4954660;28;20118;-74
2022/08/08 03:45:22;;;;;;;2.83;1.50;;;15.90;99.90;;;;;;4939093;28;20365;-74
2022/08/08 03:48:04;;;;;;;5.72;1.83;;;15.90;99.90;;;;;;4939289;28;20115;-75
2022/08/08 03:50:30;;;;;;;1.70;1.48;;;15.80;99.90;;;;;;4939366;28;20034;-75
2022/08/08 03:53:00;;;;;;;3.53;2.05;;;15.80;99.90;;;;;;4938964;28;20447;-75
2022/08/08 03:55:26;;;;;;;3.03;1.77;;;15.80;99.90;;;;;;4955415;28;20035;-75
2022/08/08 03:57:54;;;;;;;5.13;1.85;;;15.80;99.90;;;;;;4954030;28;20030;-75
2022/08/08 04:00:23;;;;;;;1.95;1.80;;;15.80;99.90;;;;;;4938966;28;20415;-75
2022/08/08 04:02:53;;;;;;;3.25;1.67;;;15.70;99.90;;;;;;4970460;28;20035;-75
2022/08/08 04:05:19;;;;;;;4.28;1.75;;;15.70;99.90;;;;;;4954999;28;20112;-75
2022/08/08 04:07:45;;;;;;;3.00;1.80;;;15.70;99.90;;;;;;4954821;28;20034;-76
2022/08/08 04:10:11;;;;;;;2.67;1.73;;;15.60;99.90;;;;;;4954686;28;20031;-76
2022/08/08 04:12:37;;;;;;;3.80;1.67;;;15.60;99.90;;;;;;4954372;28;20031;-76
2022/08/08 04:15:03;;;;;;;4.37;1.73;;;15.60;99.90;;;;;;4940861;28;20031;-73
2022/08/08 04:17:29;;;;;;;6.82;1.75;;;15.60;99.90;;;;;;4958223;28;20122;-73
2022/08/08 04:19:55;;;;;;;3.03;1.77;;;15.50;99.90;;;;;;4942504;28;20109;-72
2022/08/08 04:22:25;;;;;;;3.97;1.60;;;15.60;99.90;;;;;;4975528;28;20038;-72
2022/08/08 04:24:52;;;;;;;4.13;1.80;;;15.50;99.90;;;;;;4950370;28;20027;-72
2022/08/08 04:27:18;;;;;;;4.90;2.20;;;15.50;99.90;;;;;;4968269;28;20034;-72
2022/08/08 04:29:44;;;;;;;5.20;2.17;;;15.50;99.90;;;;;;4975405;28;20411;-72
2022/08/08 04:32:13;;;;;;;4.30;1.87;;;15.50;99.90;;;;;;4975300;28;20030;-72
2022/08/08 04:34:39;;;;;;;2.70;1.70;;;15.50;99.90;;;;;;4961410;28;20089;-72
2022/08/08 04:37:05;;;;;;;2.20;1.67;;;15.50;99.90;;;;;;4958146;28;20030;-72
2022/08/08 04:39:31;;;;;;;4.87;1.80;;;15.50;99.90;;;;;;4975409;28;20449;-72
2022/08/08 04:41:57;;;;;;;3.43;1.80;;;15.50;99.90;;;;;;4975326;28;20035;-72
2022/08/08 04:44:22;;;;;;;3.63;1.60;;;15.60;99.90;;;;;;4974830;28;20058;-73
2022/08/08 04:46:48;;;;;;;4.83;1.77;;;15.60;99.90;;;;;;4969500;28;20391;-72
2022/08/08 04:49:14;;;;;;;5.03;1.90;;;15.60;99.90;;;;;;4954833;29;20032;-72
2022/08/08 04:51:40;;;;;;;4.20;2.20;;;15.70;99.90;;;;;;4954480;29;20042;-72
2022/08/08 04:54:05;;;;;;;4.20;1.70;;;15.70;99.90;;;;;;4955379;29;20555;-72
2022/08/08 04:56:31;;;;;;;4.23;2.20;;;15.70;99.90;;;;;;4955616;29;20503;-72
2022/08/08 04:58:57;;;;;;;2.13;1.70;;;15.80;99.90;;;;;;4968415;28;20073;-73
2022/08/08 05:01:22;;;;;;;9.77;3.57;;;15.80;99.90;;;;;;4961709;28;20707;-73
2022/08/08 05:03:48;;;;;;;4.83;2.30;;;15.80;99.90;;;;;;4985487;28;20105;-75
2022/08/08 05:06:14;;;;;;;2.20;1.53;;;15.90;99.90;;;;;;4976795;28;20371;-74
2022/08/08 05:08:41;;;;;;;4.67;1.73;;;15.90;99.90;;;;;;4994202;28;20030;-77
2022/08/08 05:11:07;;;;;;;3.40;2.25;;;16.00;99.90;;;;;;4945350;28;20113;-74
2022/08/08 05:13:33;;;;;;;4.60;2.10;;;16.00;99.90;;;;;;4993624;28;20125;-76
2022/08/08 05:15:58;;;;;;;4.10;1.90;;;16.00;99.90;;;;;;4976909;28;20034;-75
2022/08/08 05:18:24;;;;;;;2.77;1.80;;;16.10;99.90;;;;;;4994024;28;20034;-75
2022/08/08 05:20:50;;;;;;;4.67;1.73;;;16.10;99.90;;;;;;4994037;28;20077;-75
2022/08/08 05:23:16;;;;;;;3.37;2.17;;;16.20;99.90;;;;;;4976139;28;20093;-75
2022/08/08 05:25:42;;;;;;;7.53;2.03;;;16.30;99.90;;;;;;4959605;28;20719;-75
2022/08/08 05:28:07;;;;;;;3.67;2.23;;;16.40;99.90;;;;;;4952312;28;20570;-74
2022/08/08 05:30:33;;;;;;;4.63;2.10;;;16.50;99.90;;;;;;4972959;28;20041;-76
2022/08/08 05:32:59;;;;;;;7.50;3.07;;;16.50;99.90;;;;;;4940680;28;20109;-75
2022/08/08 05:35:25;;;;;;;3.50;2.47;;;16.50;99.90;;;;;;4974512;28;20046;-75
2022/08/08 05:37:58;;;;;;;6.10;2.50;;;16.60;99.90;;;;;;4967866;28;20109;-74
2022/08/08 05:40:24;;;;;;;4.75;1.73;;;16.60;99.90;;;;;;4960844;28;20038;-75
2022/08/08 05:42:51;;;;;;;6.77;1.93;;;16.60;99.90;;;;;;4975765;28;20402;-75
2022/08/08 05:45:17;;;;;;;6.75;2.08;;;16.70;99.90;;;;;;4928670;28;20422;-74
2022/08/08 05:47:43;;;;;;;3.33;2.03;;;16.70;99.90;;;;;;4957399;28;20066;-74
2022/08/08 05:50:09;;;;;;;5.10;2.13;;;16.70;99.90;;;;;;4972939;28;20031;-74
2022/08/08 05:52:35;;;;;;;4.80;2.13;;;16.80;99.90;;;;;;4940803;28;20038;-74
2022/08/08 05:55:08;;;;;;;5.30;2.17;;;16.80;99.90;;;;;;4940518;28;20803;-75
2022/08/08 05:57:36;;;;;;;4.63;1.75;;;16.80;99.90;;;;;;4971559;28;20503;-77
2022/08/08 06:00:06;;;;;;;8.07;2.13;;;16.80;99.90;;;;;;4940664;28;20030;-75
2022/08/08 06:05:17;;;;;;;3.15;1.75;;;16.80;99.90;;;;;;4959181;28;20533;-75
2022/08/08 06:07:45;;;;;;;1.70;1.60;;;16.80;99.90;;;;;;4956640;28;20035;-74
2022/08/08 06:10:10;;;;;;;2.47;1.70;;;16.90;99.90;;;;;;4956896;28;20353;-74
2022/08/08 06:12:37;;;;;;;7.97;4.87;;;17.00;99.90;;;;;;4971996;28;20115;-74
2022/08/08 06:15:07;;;;;;;4.78;2.30;;;17.00;99.90;;;;;;4972075;28;20046;-74
2022/08/08 06:17:40;;;;;;;2.70;1.80;;;17.10;99.90;;;;;;4956042;28;20043;-75
2022/08/08 06:20:09;;;;;;;2.50;1.77;;;17.20;99.90;;;;;;4956028;28;20376;-75
2022/08/08 06:22:35;;;;;;;3.45;1.45;;;17.20;99.90;;;;;;4955798;28;20423;-75
2022/08/08 06:25:01;;;;;;;3.37;1.30;;;17.30;99.90;;;;;;4955922;28;20031;-74
2022/08/08 06:27:50;;;;;;;4.50;1.83;;;17.30;99.90;;;;;;4955950;28;20419;-75
2022/08/08 06:30:17;;;;;;;2.95;1.80;;;17.40;99.90;;;;;;4973329;28;20049;-74
2022/08/08 06:32:54;;;;;;;4.90;1.73;;;17.50;99.90;;;;;;4940112;28;20026;-75
2022/08/08 06:35:19;;;;;;;5.03;1.70;;;17.50;99.90;;;;;;4940990;28;20058;-75
2022/08/08 06:37:51;;;;;;;3.27;1.30;;;17.60;99.90;;;;;;4939664;28;20054;-75
2022/08/08 06:40:18;;;;;;;2.03;1.20;;;17.70;99.90;;;;;;4953108;28;20037;-71
2022/08/08 06:43:02;;;;;;;2.15;1.48;;;17.80;99.90;;;;;;4954799;28;20122;-70
2022/08/08 06:45:31;;;;;;;4.30;1.90;;;17.90;99.90;;;;;;4956162;28;20142;-71
2022/08/08 06:47:57;;;;;;;3.20;1.50;;;17.90;99.90;;;;;;4972909;28;20038;-70
2022/08/08 06:50:23;;;;;;;4.13;1.40;;;18.00;99.90;;;;;;4954949;28;20027;-71
2022/08/08 06:52:49;;;;;;;3.57;1.67;;;18.10;99.90;;;;;;4958421;28;20445;-71
2022/08/08 06:55:14;;;;;;;3.87;1.60;;;18.20;99.90;;;;;;4974376;28;20533;-71
2022/08/08 06:57:40;;;;;;;2.77;1.10;;;18.30;99.90;;;;;;4988140;28;20660;-71
2022/08/08 07:00:07;;;;;;;4.20;1.17;;;18.30;99.90;;;;;;4967870;28;20558;-72
2022/08/08 07:02:34;;;;;;;2.28;1.35;;;18.40;99.90;;;;;;4953203;29;20066;-72
2022/08/08 07:05:04;;;;;;;1.15;1.05;;;18.50;99.90;;;;;;4951447;29;20518;-72
2022/08/08 07:08:00;;;;;;;3.80;1.00;;;18.60;99.90;;;;;;4952817;29;20051;-71
2022/08/08 07:10:31;;;;;;;4.55;1.88;;;18.70;99.90;;;;;;4961344;28;20153;-72
2022/08/08 07:13:08;;;;;;;2.33;1.20;;;18.70;99.90;;;;;;4955300;28;20034;-72
2022/08/08 07:15:37;;;;;;;5.00;1.42;;;18.80;98.80;;;;;;4971135;28;20038;-72
2022/08/08 07:18:07;;;;;;;4.28;1.60;;;19.00;97.40;;;;;;4955202;28;20040;-72
2022/08/08 07:20:38;;;;;;;7.07;1.77;;;19.00;99.90;;;;;;4971332;28;20063;-72
2022/08/08 07:23:40;;;;;;;2.28;1.15;;;19.10;99.90;;;;;;4954819;28;20038;-72
2022/08/08 07:26:06;;;;;;;4.85;1.65;;;19.20;99.90;;;;;;4952841;28;20093;-72
2022/08/08 07:28:32;;;;;;;4.30;1.60;;;19.20;99.90;;;;;;4954701;28;20023;-72
2022/08/08 07:30:58;;;;;;;2.07;1.40;;;19.30;99.90;;;;;;4939060;28;20504;-72
2022/08/08 07:33:24;;;;;;;4.32;1.50;;;19.30;99.90;;;;;;4954587;28;20058;-72
2022/08/08 07:35:49;;;;;;;5.40;1.70;;;19.40;99.90;;;;;;4972339;28;20074;-71
2022/08/08 07:38:19;;;;;;;2.40;1.30;;;19.50;93.10;;;;;;4954729;28;20092;-72
2022/08/08 07:40:45;;;;;;;2.88;1.00;;;19.60;93.90;;;;;;4922963;28;20042;-72
2022/08/08 07:43:11;;;;;;;1.80;1.20;;;19.70;95.30;;;;;;4954211;28;20054;-72
2022/08/08 07:45:38;;;;;;;2.80;1.15;;;19.80;96.00;;;;;;4954887;28;20407;-71
2022/08/08 07:48:04;;;;;;;6.22;1.48;;;19.90;96.80;;;;;;4954638;28;20027;-71
2022/08/08 07:50:33;;;;;;;4.25;1.33;;;20.00;98.50;;;;;;4974114;28;20538;-72
2022/08/08 07:53:01;;;;;;;6.45;1.45;;;20.00;98.20;;;;;;4958437;28;20033;-71
2022/08/08 07:55:30;;;;;;;1.55;0.98;;;20.20;90.00;;;;;;4958907;28;20173;-73
2022/08/08 07:58:23;;;;;;;1.73;1.00;;;20.30;91.00;;;;;;4958168;28;20117;-72
2022/08/08 08:01:02;;;;;;;1.13;0.98;;;20.40;92.60;;;;;;4958633;28;20030;-72
2022/08/08 08:03:44;;;;;;;2.88;1.15;;;20.50;93.00;;;;;;4975997;28;20471;-71
2022/08/08 08:06:11;;;;;;;2.78;1.20;;;20.60;92.80;;;;;;4975865;28;20038;-71
2022/08/08 08:08:38;;;;;;;;;;;20.70;91.20;;;;;;4942885;28;20487;-71
2022/08/08 08:11:04;;;;;;;2.28;0.98;;;20.80;87.50;;;;;;4975856;28;19921;-71
2022/08/08 08:14:03;;;;;;;;;;;20.90;86.50;;;;;;4942281;28;20428;-72
2022/08/08 08:16:48;;;;;;;4.30;1.10;;;21.00;87.80;;;;;;4971675;28;19913;-72
2022/08/08 08:19:14;;;;;;;1.10;0.90;;;21.20;82.60;;;;;;4960598;28;20023;-72
2022/08/08 08:21:47;;;;;;;3.42;1.20;;;21.30;88.00;;;;;;4974480;28;20050;-72
2022/08/08 08:24:13;;;;;;;4.43;1.17;;;21.40;91.70;;;;;;4973820;28;20101;-72
2022/08/08 08:26:39;;;;;;;4.38;0.98;;;21.40;90.00;;;;;;4975249;28;20031;-72
2022/08/08 08:29:05;;;;;;;6.03;1.30;;;21.60;75.60;;;;;;4957616;28;20084;-72
2022/08/08 08:31:31;;;;;;;2.13;1.00;;;21.80;73.40;;;;;;4942198;28;20527;-71
2022/08/08 08:33:57;;;;;;;1.13;1.00;;;21.90;76.30;;;;;;4957802;28;20340;-72
2022/08/08 08:36:23;;;;;;;2.60;1.00;;;22.00;81.80;;;;;;4942232;28;20835;-71
2022/08/08 08:38:49;;;;;;;2.63;0.82;;;22.10;72.10;;;;;;4975111;28;20027;-72
2022/08/08 08:41:17;;;;;;;3.00;0.95;;;22.30;70.40;;;;;;4958024;28;20042;-71
2022/08/08 08:43:43;;;;;;;1.65;1.00;;;22.50;68.00;;;;;;4962223;28;20036;-71
2022/08/08 08:46:11;;;;;;;4.80;0.93;;;22.60;67.20;;;;;;4977191;28;20514;-72
2022/08/08 08:48:36;;;;;;;3.88;1.15;;;22.70;66.70;;;;;;4977464;28;20565;-71
2022/08/08 08:51:04;;;;;;;5.07;1.10;;;22.90;67.30;;;;;;4977306;28;20022;-71
2022/08/08 08:53:35;;;;;;;3.13;0.70;;;23.00;65.90;;;;;;4976895;28;20035;-72
2022/08/08 08:56:02;;;;;;;1.55;0.75;;;23.20;59.30;;;;;;4977196;28;20408;-72
2022/08/08 08:58:42;;;;;;;2.25;0.70;;;23.30;59.00;;;;;;4972284;28;20379;-72
2022/08/08 09:01:10;;;;;;;2.67;0.80;;;23.40;59.10;;;;;;4941187;28;20050;-72
2022/08/08 09:03:40;;;;;;;1.98;0.77;;;23.50;58.90;;;;;;4957292;28;20088;-72
2022/08/08 09:06:10;;;;;;;0.98;0.70;;;23.50;59.00;;;;;;4957603;28;20038;-72
2022/08/08 09:08:38;;;;;;;2.33;0.63;;;23.60;59.30;;;;;;4957496;28;20422;-72
2022/08/08 09:11:05;;;;;;;3.28;1.02;;;23.70;58.60;;;;;;4941707;28;20060;-72
2022/08/08 09:13:32;;;;;;;6.30;1.25;;;23.70;59.30;;;;;;4957010;28;20371;-72
2022/08/08 09:15:57;;;;;;;1.48;0.80;;;23.80;58.80;;;;;;4941553;28;20041;-72
2022/08/08 09:18:24;;;;;;;1.50;0.90;;;23.90;57.70;;;;;;4941324;28;20042;-72
2022/08/08 09:20:50;;;;;;;3.58;0.80;;;23.90;59.70;;;;;;4957333;28;20031;-72
2022/08/08 09:23:15;;;;;;;1.95;1.13;;;23.90;58.80;;;;;;4941150;28;20546;-72
2022/08/08 09:25:56;;;;;;;1.60;0.70;;;23.90;58.60;;;;;;4941166;28;20034;-72
2022/08/08 09:28:23;;;;;;;2.17;1.00;;;24.00;58.10;;;;;;4941763;28;20042;-72
2022/08/08 09:30:50;;;;;;;3.45;0.95;;;24.10;60.20;;;;;;4941190;28;20083;-72
2022/08/08 09:33:16;;;;;;;1.98;1.05;;;24.10;63.90;;;;;;4940844;28;20335;-72
2022/08/08 09:35:46;;;;;;;4.70;0.90;;;24.10;66.10;;;;;;4957125;28;20046;-72
2022/08/08 09:38:17;;;;;;;0.98;0.70;;;24.00;61.10;;;;;;4940839;28;20038;-72
2022/08/08 09:40:43;;;;;;;1.50;0.90;;;24.10;57.00;;;;;;4941420;28;20038;-72
2022/08/08 09:43:29;;;;;;;1.13;0.80;;;24.20;57.00;;;;;;4940505;28;20031;-72
2022/08/08 09:46:01;;;;;;;3.90;0.80;;;24.30;55.30;;;;;;4940998;28;20102;-72
2022/08/08 09:48:30;;;;;;;1.25;0.80;;;24.40;54.90;;;;;;4941649;28;20020;-71
2022/08/08 09:50:57;;;;;;;1.80;0.85;;;24.50;54.90;;;;;;4957143;28;20174;-72
2022/08/08 09:53:25;;;;;;;;;;;24.60;54.20;;;;;;4956786;28;20034;-72
2022/08/08 09:55:51;;;;;;;1.08;0.80;;;24.70;53.80;;;;;;4972872;28;19914;-72
2022/08/08 09:58:19;;;;;;;2.03;0.90;;;24.70;52.80;;;;;;4973484;28;20027;-72
2022/08/08 10:00:46;;;;;;;4.03;1.23;;;24.70;52.60;;;;;;4956549;28;20105;-72
2022/08/08 10:03:16;;;;;;;2.53;0.80;;;24.70;53.80;;;;;;4956263;28;20022;-72
2022/08/08 10:05:42;;;;;;;1.13;0.70;;;24.70;55.90;;;;;;4973781;28;20034;-72
2022/08/08 10:08:08;;;;;;;1.52;0.82;;;24.70;56.30;;;;;;4940719;28;20372;-74
2022/08/08 10:10:42;;;;;;;1.83;0.95;;;24.70;52.90;;;;;;4973720;28;20041;-71
2022/08/08 10:13:24;;;;;;;0.90;0.88;;;24.70;53.80;;;;;;4955929;28;20435;-71
2022/08/08 10:15:55;;;;;;;1.13;0.77;;;24.80;52.80;;;;;;4956820;28;20034;-72
2022/08/08 10:18:32;;;;;;;2.38;0.82;;;24.80;52.60;;;;;;4940791;28;20037;-71
2022/08/08 10:21:08;;;;;;;5.05;1.00;;;24.80;52.40;;;;;;4941185;28;20043;-71
2022/08/08 10:23:34;;;;;;;1.67;0.80;;;24.90;52.70;;;;;;4956520;28;20035;-71
2022/08/08 10:26:01;;;;;;;1.87;0.70;;;25.00;52.10;;;;;;4973401;28;20033;-71
2022/08/08 10:28:30;;;;;;;2.17;0.90;;;25.00;52.60;;;;;;4939832;28;20055;-71
2022/08/08 10:30:58;;;;;;;1.00;0.75;;;25.00;53.00;;;;;;4956024;28;20106;-71
2022/08/08 10:33:31;;;;;;;3.50;1.00;;;25.00;54.60;;;;;;4955682;28;20435;-71
2022/08/08 10:36:02;;;;;;;3.00;1.10;;;25.10;54.10;;;;;;4956305;28;20030;-71
2022/08/08 10:38:29;;;;;;;1.52;0.98;;;25.20;53.70;;;;;;4973050;28;20039;-71
2022/08/08 10:40:55;;;;;;;2.17;1.10;;;25.30;53.00;;;;;;4955905;28;20045;-71
2022/08/08 10:43:21;;;;;;;4.65;0.77;;;25.50;54.00;;;;;;4955297;28;20026;-71
2022/08/08 10:45:50;;;;;;;5.45;0.90;;;25.60;53.50;;;;;;4955870;28;20035;-72
2022/08/08 10:48:16;;;;;;;2.00;0.85;;;25.70;53.20;;;;;;4956073;28;20046;-71
2022/08/08 10:50:41;;;;;;;2.35;0.82;;;25.90;52.40;;;;;;4972931;28;20109;-72
2022/08/08 10:53:09;;;;;;;1.17;0.82;;;25.90;51.50;;;;;;4951422;28;20034;-72
2022/08/08 10:55:38;;;;;;;3.45;0.80;;;26.00;51.40;;;;;;4936058;29;20503;-71
2022/08/08 10:58:09;;;;;;;1.30;0.80;;;26.20;50.90;;;;;;4936787;29;20034;-71
2022/08/08 11:00:40;;;;;;;2.10;0.93;;;26.30;51.10;;;;;;4935985;29;20027;-71
2022/08/08 11:03:11;;;;;;;2.50;0.90;;;26.40;52.60;;;;;;4951986;29;20038;-71
2022/08/08 11:05:50;;;;;;;2.25;1.10;;;26.40;50.90;;;;;;4952139;29;20411;-71
2022/08/08 11:08:27;;;;;;;2.00;1.20;;;26.40;50.50;;;;;;4936081;29;20106;-71
2022/08/08 11:11:09;;;;;;;4.97;1.35;;;26.50;51.60;;;;;;4952190;29;20399;-72
2022/08/08 11:13:44;;;;;;;3.78;1.05;;;26.60;52.30;;;;;;4935840;29;20065;-72
2022/08/08 11:16:23;;;;;;;2.30;0.80;;;26.70;51.60;;;;;;4951898;29;20043;-71
2022/08/08 11:18:52;;;;;;;2.38;0.85;;;26.90;51.60;;;;;;4952074;29;20574;-72
2022/08/08 11:21:18;;;;;;;2.67;0.90;;;27.00;50.40;;;;;;4935879;29;20043;-71
2022/08/08 11:23:44;;;;;;;4.00;1.10;;;27.10;51.40;;;;;;4951000;28;20034;-72
2022/08/08 11:26:18;;;;;;;4.93;0.90;;;27.20;50.90;;;;;;4935968;29;20035;-72
2022/08/08 11:28:44;;;;;;;1.60;1.00;;;27.30;51.10;;;;;;4956345;28;20038;-72
2022/08/08 11:31:13;;;;;;;2.38;0.93;;;27.40;52.30;;;;;;4955232;28;20030;-71
2022/08/08 11:33:38;;;;;;;3.13;0.85;;;27.40;48.60;;;;;;4939098;28;20031;-72
2022/08/08 11:36:04;;;;;;;1.23;0.80;;;27.40;51.90;;;;;;4954992;28;20089;-71
2022/08/08 11:38:30;;;;;;;2.35;0.93;;;27.40;52.50;;;;;;4939036;28;20125;-71
2022/08/08 11:40:56;;;;;;;3.45;1.00;;;27.50;50.70;;;;;;4939143;28;20145;-72
2022/08/08 11:43:23;;;;;;;4.25;0.90;;;27.70;51.00;;;;;;4971805;28;20392;-71
2022/08/08 11:45:51;;;;;;;3.67;1.08;;;27.80;49.70;;;;;;4954939;28;20041;-72
2022/08/08 11:48:17;;;;;;;3.13;0.95;;;27.90;50.10;;;;;;4939276;28;20031;-72
2022/08/08 11:50:42;;;;;;;2.70;1.00;;;27.90;48.60;;;;;;4972303;28;20054;-72
2022/08/08 11:53:08;;;;;;;0.68;0.65;;;28.00;47.50;;;;;;4972087;28;20085;-72
2022/08/08 11:55:34;;;;;;;6.85;1.52;;;28.10;47.40;;;;;;4938421;28;20475;-72
2022/08/08 11:58:08;;;;;;;3.03;1.10;;;28.20;50.00;;;;;;4954787;28;20058;-72
2022/08/08 12:00:41;;;;;;;2.38;1.02;;;28.30;48.10;;;;;;4972076;28;20035;-72
2022/08/08 12:03:21;;;;;;;2.45;0.73;;;28.50;46.80;;;;;;4955916;28;20450;-72
2022/08/08 12:05:47;;;;;;;1.98;0.93;;;28.50;45.50;;;;;;4956176;28;20098;-72
2022/08/08 12:08:13;;;;;;;0.90;0.90;;;28.60;46.50;;;;;;4954861;28;20030;-72
2022/08/08 12:10:49;;;;;;;4.03;0.90;;;28.70;46.00;;;;;;4954708;28;20726;-72
2022/08/08 12:13:21;;;;;;;1.38;0.90;;;28.80;44.70;;;;;;4954696;28;20083;-72
2022/08/08 12:15:47;;;;;;;1.77;0.80;;;28.90;48.40;;;;;;4954582;28;20038;-72
2022/08/08 12:18:16;;;;;;;1.77;0.90;;;29.00;48.60;;;;;;4971872;28;20083;-72
2022/08/08 12:20:41;;;;;;;1.10;0.88;;;29.30;47.80;;;;;;4972035;28;20133;-73
2022/08/08 12:23:07;;;;;;;2.58;1.05;;;29.50;48.90;;;;;;4954484;28;20542;-72
2022/08/08 12:25:33;;;;;;;0.70;0.70;;;29.70;46.70;;;;;;4971829;28;20127;-72
2022/08/08 12:28:13;;;;;;;2.17;1.08;;;30.00;45.80;;;;;;4970530;28;20034;-72
2022/08/08 12:30:39;;;;;;;1.85;0.77;;;30.30;46.20;;;;;;4971713;28;20035;-72
2022/08/08 12:33:25;;;;;;;2.10;0.80;;;30.40;47.10;;;;;;4954414;28;20030;-72
2022/08/08 12:35:51;;;;;;;2.13;0.90;;;30.70;47.80;;;;;;4941823;28;20026;-72
2022/08/08 12:38:16;;;;;;;2.17;0.80;;;30.90;47.50;;;;;;4975259;28;20035;-72
2022/08/08 12:40:48;;;;;;;0.95;0.90;;;31.20;46.50;;;;;;4958220;28;20046;-72
2022/08/08 12:43:14;;;;;;;2.13;0.80;;;31.40;47.30;;;;;;4974960;28;20486;-72
2022/08/08 12:45:42;;;;;;;1.45;0.90;;;31.60;43.10;;;;;;4974882;28;20034;-72
2022/08/08 12:48:19;;;;;;;1.33;0.60;;;31.70;45.50;;;;;;4957830;28;20062;-72
2022/08/08 12:50:50;;;;;;;1.88;0.90;;;31.80;42.50;;;;;;4958124;28;20114;-72
2022/08/08 12:53:28;;;;;;;1.00;0.90;;;31.90;42.60;;;;;;4957733;28;20097;-72
2022/08/08 12:55:59;;;;;;;3.25;0.93;;;32.00;46.20;;;;;;4958006;28;20402;-72
2022/08/08 12:58:25;;;;;;;2.00;0.70;;;32.20;41.50;;;;;;4956910;28;20034;-72
2022/08/08 13:00:51;;;;;;;1.60;0.95;;;32.30;41.60;;;;;;4974747;28;20030;-72
2022/08/08 13:03:28;;;;;;;2.47;0.95;;;32.50;44.10;;;;;;4974680;28;20439;-72
2022/08/08 13:06:10;;;;;;;1.23;1.02;;;32.70;42.70;;;;;;4941897;28;20039;-72
2022/08/08 13:08:49;;;;;;;1.08;0.70;;;32.80;39.90;;;;;;4957927;28;20041;-72
2022/08/08 13:11:37;;;;;;;1.35;0.80;;;32.90;39.60;;;;;;4974764;28;20403;-72
2022/08/08 13:14:11;;;;;;;1.48;0.80;;;32.90;40.90;;;;;;4957385;28;20304;-72
2022/08/08 13:16:37;;;;;;;1.00;0.85;;;33.20;41.30;;;;;;4958223;28;20487;-72
2022/08/08 13:19:06;;;;;;;1.58;0.80;;;33.40;39.00;;;;;;4974453;28;20041;-72
2022/08/08 13:21:32;;;;;;;1.30;0.80;;;33.70;38.10;;;;;;4974549;28;20045;-72
2022/08/08 13:23:58;;;;;;;1.30;0.70;;;34.10;39.60;;;;;;4941032;28;20118;-72
2022/08/08 13:26:29;;;;;;;;;;;34.60;38.40;;;;;;4974818;28;20106;-72
2022/08/08 13:28:55;;;;;;;1.08;0.93;;;35.20;35.00;;;;;;4974542;28;19910;-72
2022/08/08 13:31:21;;;;;;;;;;;35.70;35.80;;;;;;4974698;28;20664;-72
2022/08/08 13:33:47;;;;;;;1.23;0.70;;;36.40;39.70;;;;;;4973953;28;20366;-73